Time;durP1;ratioP1;P1;durP2;ratioP2;P2;SDS_P1;SDS_P2;PMS_P1;PMS_P2;Temp;Humidity;BMP_temperature;BMP_pressure;BME280_temperature;BME280_humidity;BME280_pressure;Samples;Min_cycle;Max_cycle;Signal;HPM_P1;HPM_P2
2021/09/20 00:01:52;;;;;;;7.03;4.82;;;16.20;82.50;;;;;;5017674;28;20056;-87
2021/09/20 00:04:17;;;;;;;6.18;4.47;;;16.20;82.40;;;;;;5017839;28;20033;-85
2021/09/20 00:06:43;;;;;;;6.47;4.72;;;16.10;81.90;;;;;;5018332;28;20045;-86
2021/09/20 00:09:09;;;;;;;8.05;4.40;;;16.10;82.40;;;;;;5017775;28;20125;-85
2021/09/20 00:11:35;;;;;;;6.13;4.35;;;16.00;82.50;;;;;;5033024;28;20121;-86
2021/09/20 00:14:00;;;;;;;6.22;4.38;;;16.00;82.30;;;;;;5017459;28;20181;-86
2021/09/20 00:16:27;;;;;;;6.70;4.70;;;16.00;82.70;;;;;;5017030;28;20053;-86
2021/09/20 00:18:52;;;;;;;8.10;4.78;;;15.90;82.40;;;;;;5017338;28;20052;-86
2021/09/20 00:21:18;;;;;;;6.80;4.75;;;15.90;82.30;;;;;;5016288;28;20048;-89
2021/09/20 00:23:44;;;;;;;6.90;4.95;;;15.90;83.10;;;;;;4998569;28;20049;-86
2021/09/20 00:26:10;;;;;;;7.57;4.70;;;15.80;83.00;;;;;;5015280;28;20022;-86
2021/09/20 00:28:36;;;;;;;6.88;4.63;;;15.80;83.20;;;;;;5017650;28;20022;-86
2021/09/20 00:31:02;;;;;;;7.25;4.70;;;15.80;83.10;;;;;;5032583;28;20458;-87
2021/09/20 00:33:27;;;;;;;6.70;4.70;;;15.70;82.80;;;;;;5016766;28;20030;-86
2021/09/20 00:35:53;;;;;;;7.18;5.03;;;15.70;82.90;;;;;;5015524;28;20026;-86
2021/09/20 00:38:19;;;;;;;6.88;4.70;;;15.70;83.00;;;;;;5016181;28;20033;-86
2021/09/20 00:40:45;;;;;;;7.32;4.20;;;15.70;82.90;;;;;;5032366;28;20061;-87
2021/09/20 00:43:11;;;;;;;6.15;4.78;;;15.60;83.20;;;;;;5016504;28;20190;-86
2021/09/20 00:45:37;;;;;;;8.20;5.25;;;15.60;83.90;;;;;;5021475;28;20058;-87
2021/09/20 00:48:03;;;;;;;7.00;5.05;;;15.50;83.20;;;;;;5035405;28;20044;-87
2021/09/20 00:50:29;;;;;;;6.38;5.05;;;15.60;82.80;;;;;;5035904;28;20053;-91
2021/09/20 00:52:55;;;;;;;6.45;4.60;;;15.50;83.00;;;;;;5038973;28;20030;-87
2021/09/20 00:55:21;;;;;;;6.63;4.93;;;15.40;83.60;;;;;;5021635;28;20025;-86
2021/09/20 00:57:47;;;;;;;6.57;4.57;;;15.40;83.70;;;;;;5034698;28;20022;-86
2021/09/20 01:00:14;;;;;;;7.22;4.63;;;15.40;83.20;;;;;;5019341;28;20056;-86
2021/09/20 01:02:39;;;;;;;7.68;4.85;;;15.40;83.20;;;;;;5035188;28;20022;-86
2021/09/20 01:05:07;;;;;;;7.15;4.72;;;15.40;83.30;;;;;;5019173;28;20125;-87
2021/09/20 01:07:33;;;;;;;7.32;5.13;;;15.30;83.50;;;;;;5016903;28;20022;-86
2021/09/20 01:09:58;;;;;;;8.85;5.70;;;15.30;84.10;;;;;;5016222;28;20386;-86
2021/09/20 01:12:25;;;;;;;7.82;5.05;;;15.30;84.00;;;;;;5016318;28;20034;-86
2021/09/20 01:14:50;;;;;;;6.15;4.80;;;15.20;84.20;;;;;;5016185;28;20080;-86
2021/09/20 01:17:16;;;;;;;6.93;5.05;;;15.20;84.10;;;;;;4999940;28;20093;-87
2021/09/20 01:19:41;;;;;;;7.47;5.57;;;15.10;84.70;;;;;;5015623;28;20026;-86
2021/09/20 01:22:14;;;;;;;6.68;4.90;;;15.20;85.10;;;;;;5016912;28;20072;-86
2021/09/20 01:24:41;;;;;;;8.35;5.82;;;15.10;85.20;;;;;;5033029;28;20022;-86
2021/09/20 01:27:08;;;;;;;7.63;5.43;;;15.10;85.30;;;;;;5015296;28;20037;-86
2021/09/20 01:29:34;;;;;;;9.07;6.10;;;15.10;85.30;;;;;;5016092;28;20061;-86
2021/09/20 01:32:02;;;;;;;9.60;6.22;;;15.00;85.10;;;;;;5032388;28;20076;-87
2021/09/20 01:34:28;;;;;;;8.98;6.25;;;15.00;85.10;;;;;;5016932;28;20486;-88
2021/09/20 01:36:54;;;;;;;8.13;6.25;;;15.00;84.90;;;;;;5015661;28;20025;-85
2021/09/20 01:39:31;;;;;;;9.05;6.45;;;14.90;85.50;;;;;;5016520;28;20032;-85
2021/09/20 01:41:58;;;;;;;11.30;6.85;;;15.00;84.90;;;;;;5016433;28;20082;-86
2021/09/20 01:44:25;;;;;;;10.35;6.90;;;14.90;84.80;;;;;;5016740;28;20033;-87
2021/09/20 01:46:52;;;;;;;10.02;7.00;;;14.90;85.00;;;;;;5016493;28;20485;-87
2021/09/20 01:49:20;;;;;;;9.82;6.70;;;14.90;84.90;;;;;;5031520;28;20030;-87
2021/09/20 01:51:46;;;;;;;11.20;7.10;;;14.80;85.30;;;;;;5031459;28;20030;-86
2021/09/20 01:54:12;;;;;;;9.82;6.75;;;14.80;85.20;;;;;;4998433;28;20030;-86
2021/09/20 01:56:39;;;;;;;11.65;7.60;;;14.80;85.30;;;;;;5016329;28;20018;-86
2021/09/20 01:59:05;;;;;;;9.98;7.07;;;14.80;85.40;;;;;;5016588;28;20026;-87
2021/09/20 02:01:31;;;;;;;10.68;6.75;;;14.80;85.60;;;;;;4997877;28;20053;-87
2021/09/20 02:03:57;;;;;;;8.98;6.40;;;14.70;85.90;;;;;;5031626;28;20030;-86
2021/09/20 02:06:24;;;;;;;9.63;6.43;;;14.70;85.50;;;;;;5031381;28;20386;-87
2021/09/20 02:08:50;;;;;;;8.18;6.25;;;14.70;85.50;;;;;;5031357;28;20049;-86
2021/09/20 02:11:17;;;;;;;9.95;6.35;;;14.70;85.70;;;;;;5014787;28;20084;-86
2021/09/20 02:13:43;;;;;;;8.15;5.32;;;14.70;85.60;;;;;;5015852;28;20030;-87
2021/09/20 02:16:08;;;;;;;8.25;5.75;;;14.60;85.80;;;;;;5031115;28;20045;-86
2021/09/20 02:18:36;;;;;;;7.97;5.68;;;14.60;85.80;;;;;;5014372;28;20030;-85
2021/09/20 02:21:03;;;;;;;8.55;5.88;;;14.60;85.50;;;;;;5013931;28;20029;-85
2021/09/20 02:23:29;;;;;;;7.70;5.43;;;14.60;85.60;;;;;;5014332;28;20061;-85
2021/09/20 02:25:55;;;;;;;8.18;5.25;;;14.60;85.80;;;;;;5014720;28;20034;-85
2021/09/20 02:28:21;;;;;;;6.95;5.05;;;14.60;86.00;;;;;;5015164;28;20029;-87
2021/09/20 02:30:47;;;;;;;7.45;5.57;;;14.60;86.10;;;;;;5014903;28;20490;-86
2021/09/20 02:33:12;;;;;;;7.80;5.50;;;14.60;86.00;;;;;;5014299;28;20457;-85
2021/09/20 02:35:38;;;;;;;7.15;5.10;;;14.50;86.10;;;;;;5030509;28;20037;-86
2021/09/20 02:38:04;;;;;;;7.95;5.25;;;14.50;87.10;;;;;;5014526;28;20118;-86
2021/09/20 02:40:30;;;;;;;6.88;5.07;;;14.50;86.10;;;;;;5015476;28;20030;-86
2021/09/20 02:42:55;;;;;;;7.57;5.40;;;14.50;86.00;;;;;;5015702;28;20038;-87
2021/09/20 02:45:21;;;;;;;7.25;5.15;;;14.50;85.70;;;;;;5029168;28;20026;-86
2021/09/20 02:47:47;;;;;;;8.43;5.32;;;14.40;85.40;;;;;;4993287;28;20023;-86
2021/09/20 02:50:13;;;;;;;7.57;5.40;;;14.40;85.70;;;;;;5030857;28;20057;-86
2021/09/20 02:52:39;;;;;;;6.97;5.15;;;14.40;85.80;;;;;;5013862;28;20033;-87
2021/09/20 02:55:07;;;;;;;6.85;5.43;;;14.40;85.70;;;;;;5015321;28;20185;-86
2021/09/20 02:57:33;;;;;;;7.22;5.40;;;14.40;85.80;;;;;;5015218;28;20077;-86
2021/09/20 02:59:59;;;;;;;7.10;4.97;;;14.30;86.20;;;;;;4997703;28;20121;-87
2021/09/20 03:02:24;;;;;;;8.38;5.60;;;14.30;86.20;;;;;;5014133;28;20053;-87
2021/09/20 03:04:50;;;;;;;7.55;5.03;;;14.30;86.60;;;;;;4997217;28;20106;-87
2021/09/20 03:07:16;;;;;;;7.32;5.40;;;14.30;86.60;;;;;;5012910;28;20022;-87
2021/09/20 03:09:41;;;;;;;7.15;5.03;;;14.30;86.70;;;;;;5013411;28;20501;-86
2021/09/20 03:12:07;;;;;;;9.77;6.30;;;14.20;86.60;;;;;;5013600;28;20026;-87
2021/09/20 03:14:33;;;;;;;6.85;4.78;;;14.20;86.60;;;;;;4997637;28;20098;-87
2021/09/20 03:16:59;;;;;;;9.20;5.47;;;14.20;86.90;;;;;;5013662;28;20123;-87
2021/09/20 03:19:24;;;;;;;8.65;5.45;;;14.20;87.30;;;;;;5013207;28;20104;-87
2021/09/20 03:21:50;;;;;;;8.65;4.93;;;14.10;87.50;;;;;;5014487;28;20406;-88
2021/09/20 03:24:16;;;;;;;8.23;5.45;;;14.10;87.60;;;;;;5015446;28;20520;-87
2021/09/20 03:26:42;;;;;;;7.50;5.57;;;14.10;87.60;;;;;;5029833;28;20085;-87
2021/09/20 03:29:08;;;;;;;6.75;5.00;;;14.10;87.60;;;;;;5013518;28;20545;-87
2021/09/20 03:31:33;;;;;;;6.80;4.93;;;14.10;87.60;;;;;;4997043;28;20057;-88
2021/09/20 03:33:59;;;;;;;6.85;5.05;;;14.00;87.70;;;;;;4997004;28;20062;-87
2021/09/20 03:36:25;;;;;;;6.40;4.82;;;14.00;88.00;;;;;;4997067;28;20089;-87
2021/09/20 03:38:51;;;;;;;7.90;5.55;;;14.00;88.00;;;;;;5013167;28;20030;-86
2021/09/20 03:41:17;;;;;;;7.55;5.55;;;14.00;88.40;;;;;;5030039;28;20120;-87
2021/09/20 03:43:44;;;;;;;7.82;5.25;;;14.00;88.50;;;;;;5013510;28;20093;-87
2021/09/20 03:46:10;;;;;;;7.65;5.47;;;13.90;88.50;;;;;;5014364;28;20022;-87
2021/09/20 03:48:36;;;;;;;7.65;5.25;;;13.90;88.60;;;;;;4995255;28;20050;-87
2021/09/20 03:51:02;;;;;;;7.93;5.78;;;13.90;88.70;;;;;;4996937;28;20045;-86
2021/09/20 03:53:28;;;;;;;7.15;5.25;;;13.90;88.70;;;;;;4997090;28;20062;-87
2021/09/20 03:55:54;;;;;;;8.18;5.70;;;13.90;89.00;;;;;;4996352;28;20129;-87
2021/09/20 03:58:19;;;;;;;8.07;5.50;;;13.80;89.10;;;;;;4981275;28;20050;-86
2021/09/20 04:00:45;;;;;;;6.85;5.15;;;13.80;89.00;;;;;;4999570;28;20376;-87
2021/09/20 04:03:11;;;;;;;10.43;6.13;;;13.80;88.80;;;;;;5010552;28;20114;-87
2021/09/20 04:05:36;;;;;;;7.38;5.22;;;13.80;88.90;;;;;;5016919;28;20029;-87
2021/09/20 04:08:02;;;;;;;8.65;5.63;;;13.80;89.00;;;;;;4993550;28;20120;-87
2021/09/20 04:10:28;;;;;;;7.32;5.30;;;13.80;89.00;;;;;;5010956;28;20026;-86
2021/09/20 04:12:54;;;;;;;9.35;5.78;;;13.80;89.10;;;;;;5016816;28;20061;-86
2021/09/20 04:15:19;;;;;;;8.43;5.93;;;13.80;89.00;;;;;;5016866;28;20026;-87
2021/09/20 04:17:45;;;;;;;7.60;5.55;;;13.70;89.00;;;;;;5032630;28;20037;-88
2021/09/20 04:20:12;;;;;;;8.68;5.85;;;13.70;89.20;;;;;;5033195;28;20474;-87
2021/09/20 04:22:38;;;;;;;7.60;5.45;;;13.70;89.20;;;;;;5016989;28;20054;-86
2021/09/20 04:25:05;;;;;;;9.38;5.88;;;13.70;89.50;;;;;;5034177;28;20097;-86
2021/09/20 04:27:31;;;;;;;7.45;5.03;;;13.70;89.80;;;;;;5013610;28;20037;-88
2021/09/20 04:29:56;;;;;;;8.05;5.65;;;13.70;89.40;;;;;;5022988;28;20052;-87
2021/09/20 04:32:22;;;;;;;8.20;5.53;;;13.70;89.40;;;;;;5037957;28;20027;-87
2021/09/20 04:34:48;;;;;;;9.70;5.80;;;13.70;89.40;;;;;;5040027;28;20024;-88
2021/09/20 04:37:14;;;;;;;7.43;5.45;;;13.70;89.50;;;;;;5052804;28;20478;-87
2021/09/20 04:39:40;;;;;;;7.38;5.40;;;13.70;89.50;;;;;;5051492;28;20022;-89
2021/09/20 04:42:05;;;;;;;8.70;5.95;;;13.70;89.40;;;;;;5019929;28;20049;-87
2021/09/20 04:44:31;;;;;;;7.57;5.70;;;13.70;89.60;;;;;;5011599;28;20076;-87
2021/09/20 04:46:57;;;;;;;8.93;5.63;;;13.70;89.50;;;;;;5019962;28;20038;-87
2021/09/20 04:49:23;;;;;;;8.68;6.18;;;13.60;89.60;;;;;;4993761;28;20120;-86
2021/09/20 04:51:48;;;;;;;8.38;5.88;;;13.60;89.70;;;;;;5032579;28;20034;-88
2021/09/20 04:54:14;;;;;;;7.03;5.40;;;13.70;90.00;;;;;;5017525;28;20091;-88
2021/09/20 04:56:40;;;;;;;9.35;5.80;;;13.60;89.90;;;;;;5011079;28;20029;-88
2021/09/20 04:59:05;;;;;;;7.95;5.85;;;13.60;90.00;;;;;;5016134;28;20121;-89
2021/09/20 05:01:31;;;;;;;8.93;5.45;;;13.60;90.00;;;;;;5009088;28;20037;-88
2021/09/20 05:03:57;;;;;;;8.73;5.55;;;13.60;90.00;;;;;;5017328;28;20030;-87
2021/09/20 05:06:22;;;;;;;8.05;6.15;;;13.60;90.10;;;;;;5013377;28;20033;-87
2021/09/20 05:08:48;;;;;;;9.45;7.03;;;13.60;90.00;;;;;;5016427;28;20106;-87
2021/09/20 05:11:14;;;;;;;7.18;5.40;;;13.50;90.00;;;;;;4998819;28;20034;-87
2021/09/20 05:13:42;;;;;;;8.50;5.78;;;13.50;90.10;;;;;;5002362;28;20478;-87
2021/09/20 05:16:08;;;;;;;8.50;5.85;;;13.50;90.20;;;;;;4983271;28;20029;-87
2021/09/20 05:18:34;;;;;;;9.43;5.88;;;13.50;90.10;;;;;;5016915;28;20036;-89
2021/09/20 05:20:59;;;;;;;10.68;6.22;;;13.50;90.10;;;;;;4985754;28;20083;-87
2021/09/20 05:23:25;;;;;;;9.68;6.60;;;13.50;90.20;;;;;;5037910;28;20049;-88
2021/09/20 05:25:51;;;;;;;9.82;6.63;;;13.50;90.30;;;;;;5032823;28;20057;-87
2021/09/20 05:28:17;;;;;;;8.52;6.30;;;13.50;90.30;;;;;;5017558;28;20466;-92
2021/09/20 05:30:42;;;;;;;8.70;6.10;;;13.50;90.20;;;;;;5016502;28;20386;-87
2021/09/20 05:33:08;;;;;;;10.90;5.78;;;13.40;90.30;;;;;;4990097;28;20041;-87
2021/09/20 05:35:34;;;;;;;9.63;6.20;;;13.40;90.40;;;;;;5001370;28;20030;-88
2021/09/20 05:38:00;;;;;;;10.43;6.63;;;13.40;90.40;;;;;;5029402;28;20034;-89
2021/09/20 05:40:26;;;;;;;10.32;6.65;;;13.40;90.50;;;;;;5012694;28;20080;-88
2021/09/20 05:42:59;;;;;;;7.63;5.63;;;13.40;90.40;;;;;;5009841;28;20053;-87
2021/09/20 05:45:25;;;;;;;8.35;5.78;;;13.40;90.40;;;;;;5002967;28;20116;-87
2021/09/20 05:47:52;;;;;;;10.23;6.10;;;13.40;90.60;;;;;;5030882;28;20025;-87
2021/09/20 05:50:19;;;;;;;11.07;6.90;;;13.40;90.60;;;;;;5013755;28;20030;-88
2021/09/20 05:52:45;;;;;;;9.35;6.32;;;13.40;90.70;;;;;;4989314;28;20036;-87
2021/09/20 05:55:12;;;;;;;9.38;7.00;;;13.40;90.80;;;;;;5013375;28;20129;-87
2021/09/20 05:57:38;;;;;;;12.02;6.65;;;13.30;90.60;;;;;;5030281;28;20022;-87
2021/09/20 06:00:04;;;;;;;14.70;7.05;;;13.30;90.70;;;;;;5031304;28;20034;-87
2021/09/20 06:02:30;;;;;;;10.52;6.82;;;13.30;90.80;;;;;;5030407;28;20026;-87
2021/09/20 06:04:56;;;;;;;8.88;6.57;;;13.30;90.80;;;;;;5014977;28;20026;-87
2021/09/20 06:07:21;;;;;;;10.82;6.63;;;13.30;90.90;;;;;;5013621;28;20018;-87
2021/09/20 06:09:47;;;;;;;10.98;6.57;;;13.30;90.90;;;;;;5004851;28;20034;-86
2021/09/20 06:12:13;;;;;;;9.73;6.43;;;13.30;90.90;;;;;;5013297;28;20030;-87
2021/09/20 06:14:39;;;;;;;9.80;7.13;;;13.40;90.90;;;;;;5013987;28;20042;-87
2021/09/20 06:17:05;;;;;;;8.23;6.30;;;13.30;90.80;;;;;;5013247;28;20109;-87
2021/09/20 06:19:30;;;;;;;9.40;6.60;;;13.40;90.80;;;;;;4996900;28;20096;-88
2021/09/20 06:21:56;;;;;;;9.63;7.18;;;13.40;90.90;;;;;;4996224;28;20054;-86
2021/09/20 06:24:22;;;;;;;9.57;6.95;;;13.40;90.90;;;;;;5012300;28;20030;-87
2021/09/20 06:26:47;;;;;;;9.15;7.13;;;13.40;90.90;;;;;;5030067;28;20026;-87
2021/09/20 06:29:13;;;;;;;10.65;6.65;;;13.40;90.90;;;;;;5013452;28;20040;-87
2021/09/20 06:31:41;;;;;;;9.48;6.40;;;13.40;90.90;;;;;;4997118;28;20032;-87
2021/09/20 06:34:07;;;;;;;10.45;7.30;;;13.40;91.00;;;;;;5029942;28;20498;-88
2021/09/20 06:36:33;;;;;;;9.40;6.90;;;13.40;90.90;;;;;;5014579;28;20108;-87
2021/09/20 06:38:59;;;;;;;9.52;6.93;;;13.40;90.90;;;;;;5029596;28;20466;-87
2021/09/20 06:41:25;;;;;;;8.65;6.30;;;13.40;90.90;;;;;;5015152;28;20041;-87
2021/09/20 06:43:52;;;;;;;10.48;6.53;;;13.50;90.90;;;;;;5015029;28;20033;-87
2021/09/20 06:46:18;;;;;;;9.48;7.00;;;13.50;90.80;;;;;;4997297;28;20057;-87
2021/09/20 06:48:44;;;;;;;8.77;6.57;;;13.40;90.80;;;;;;5013349;28;20049;-87
2021/09/20 06:51:10;;;;;;;7.90;6.18;;;13.50;90.80;;;;;;5000147;28;20489;-86
2021/09/20 06:53:36;;;;;;;11.00;6.93;;;13.50;90.80;;;;;;4981184;28;20034;-88
2021/09/20 06:56:02;;;;;;;9.40;6.85;;;13.50;91.10;;;;;;5011816;28;20462;-86
2021/09/20 06:58:28;;;;;;;8.90;6.13;;;13.60;90.80;;;;;;5001059;28;20026;-87
2021/09/20 07:00:53;;;;;;;9.52;6.13;;;13.50;90.70;;;;;;5012918;28;20040;-88
2021/09/20 07:03:19;;;;;;;9.35;6.85;;;13.60;90.70;;;;;;5029773;28;20062;-87
2021/09/20 07:05:45;;;;;;;8.85;6.55;;;13.60;90.70;;;;;;4996253;28;20038;-86
2021/09/20 07:08:11;;;;;;;7.88;6.15;;;13.60;90.70;;;;;;4998899;28;20021;-88
2021/09/20 07:10:36;;;;;;;10.35;6.35;;;13.70;90.60;;;;;;5005132;28;20505;-87
2021/09/20 07:13:08;;;;;;;8.70;6.22;;;13.70;90.50;;;;;;5007566;28;20069;-87
2021/09/20 07:15:35;;;;;;;8.27;6.55;;;13.70;90.30;;;;;;5013017;28;20088;-87
2021/09/20 07:18:00;;;;;;;8.35;6.32;;;13.70;90.20;;;;;;5010982;28;20030;-89
2021/09/20 07:20:26;;;;;;;9.45;6.68;;;13.70;90.10;;;;;;5008533;28;20033;-87
2021/09/20 07:22:51;;;;;;;9.38;6.20;;;13.80;89.90;;;;;;5007108;28;20510;-93
2021/09/20 07:25:17;;;;;;;9.10;7.07;;;13.80;89.70;;;;;;4996314;28;20056;-91
2021/09/20 07:27:43;;;;;;;9.05;6.78;;;13.80;89.60;;;;;;5017056;28;20477;-91
2021/09/20 07:30:15;;;;;;;9.30;6.85;;;13.80;89.30;;;;;;5028297;28;20022;-92
2021/09/20 07:32:41;;;;;;;10.00;6.68;;;13.80;89.10;;;;;;4992797;28;20392;-92
2021/09/20 07:35:08;;;;;;;7.80;6.68;;;13.90;88.80;;;;;;5024965;28;20061;-90
2021/09/20 07:37:34;;;;;;;10.23;6.63;;;13.90;88.70;;;;;;5040175;28;20026;-91
2021/09/20 07:39:59;;;;;;;9.65;6.78;;;13.90;88.50;;;;;;5038722;28;20033;-90
2021/09/20 07:42:25;;;;;;;8.35;5.90;;;13.90;88.30;;;;;;5033665;28;20475;-90
2021/09/20 07:44:51;;;;;;;11.10;6.38;;;13.90;88.20;;;;;;5021951;28;20057;-90
2021/09/20 07:47:18;;;;;;;10.40;7.45;;;13.90;88.10;;;;;;5012949;28;20022;-89
2021/09/20 07:49:43;;;;;;;9.13;7.30;;;14.00;88.10;;;;;;5017642;28;20018;-90
2021/09/20 07:52:09;;;;;;;8.48;6.65;;;14.00;87.70;;;;;;5016809;28;20136;-89
2021/09/20 07:54:35;;;;;;;10.18;7.28;;;14.00;87.50;;;;;;5012934;28;20061;-88
2021/09/20 07:57:01;;;;;;;9.23;6.53;;;14.10;87.60;;;;;;4996730;28;20030;-86
2021/09/20 07:59:27;;;;;;;8.43;6.65;;;14.10;87.70;;;;;;5009765;28;20128;-88
2021/09/20 08:01:52;;;;;;;8.40;6.60;;;14.10;87.50;;;;;;5021246;28;20030;-88
2021/09/20 08:04:18;;;;;;;10.88;7.38;;;14.10;87.40;;;;;;5014974;28;20030;-84
2021/09/20 08:06:43;;;;;;;9.77;6.45;;;14.10;87.30;;;;;;5027400;28;20054;-86
2021/09/20 08:09:09;;;;;;;7.55;6.13;;;14.20;87.50;;;;;;5033631;28;20014;-85
2021/09/20 08:11:35;;;;;;;8.63;6.75;;;14.20;87.40;;;;;;5036966;28;20022;-89
2021/09/20 08:14:00;;;;;;;8.77;6.30;;;14.30;87.50;;;;;;5055061;28;20049;-91
2021/09/20 08:16:26;;;;;;;7.88;6.18;;;14.30;87.60;;;;;;5027405;28;20013;-85
2021/09/20 08:18:52;;;;;;;8.02;5.72;;;14.30;87.50;;;;;;5035419;28;20030;-88
2021/09/20 08:21:17;;;;;;;7.38;5.85;;;14.40;87.50;;;;;;5052290;28;20014;-83
2021/09/20 08:23:43;;;;;;;8.70;6.35;;;14.40;87.60;;;;;;5042702;28;20014;-85
2021/09/20 08:26:09;;;;;;;8.45;6.72;;;14.50;87.90;;;;;;5021327;28;20022;-85
2021/09/20 08:28:34;;;;;;;9.68;7.03;;;14.50;87.20;;;;;;5004440;28;20482;-85
2021/09/20 08:31:01;;;;;;;7.78;5.90;;;14.60;87.20;;;;;;5013698;28;20471;-85
2021/09/20 08:33:26;;;;;;;8.77;6.13;;;14.60;87.00;;;;;;5030598;28;20061;-85
2021/09/20 08:35:52;;;;;;;8.30;5.90;;;14.70;86.70;;;;;;4981785;28;20072;-85
2021/09/20 08:38:18;;;;;;;7.97;6.18;;;14.80;86.30;;;;;;5002600;28;20495;-85
2021/09/20 08:40:44;;;;;;;7.00;5.65;;;14.90;86.20;;;;;;5028729;28;20452;-85
2021/09/20 08:43:09;;;;;;;6.97;5.10;;;14.90;86.10;;;;;;5030266;28;20375;-85
2021/09/20 08:45:35;;;;;;;5.82;4.80;;;15.00;86.40;;;;;;5011243;28;20474;-84
2021/09/20 08:48:01;;;;;;;6.40;4.88;;;15.10;86.80;;;;;;5018414;28;20493;-85
2021/09/20 08:50:36;;;;;;;7.43;5.47;;;15.10;86.80;;;;;;5012978;28;20092;-85
2021/09/20 08:53:04;;;;;;;6.57;5.07;;;15.20;87.00;;;;;;5014193;28;20036;-85
2021/09/20 08:55:32;;;;;;;7.22;5.47;;;15.30;87.10;;;;;;5014685;28;20022;-86
2021/09/20 08:57:58;;;;;;;8.02;5.57;;;15.40;87.00;;;;;;5014823;28;20045;-86
2021/09/20 09:00:24;;;;;;;7.22;5.90;;;15.50;86.80;;;;;;5013702;28;20037;-84
2021/09/20 09:02:51;;;;;;;7.03;4.30;;;15.50;86.30;;;;;;5014291;28;20025;-86
2021/09/20 09:05:25;;;;;;;7.45;5.78;;;15.60;86.10;;;;;;5014412;28;20054;-85
2021/09/20 09:08:00;;;;;;;6.25;4.78;;;15.70;85.70;;;;;;5013918;28;20064;-85
2021/09/20 09:10:29;;;;;;;8.05;5.90;;;15.80;85.20;;;;;;5014508;28;20037;-84
2021/09/20 09:12:55;;;;;;;6.75;4.88;;;15.90;84.60;;;;;;5023694;28;20386;-85
2021/09/20 09:15:23;;;;;;;6.70;5.50;;;15.90;84.20;;;;;;5002673;28;20392;-85
2021/09/20 09:17:53;;;;;;;6.50;5.18;;;16.00;83.40;;;;;;5015217;28;20194;-85
2021/09/20 09:20:23;;;;;;;6.35;5.20;;;16.10;83.50;;;;;;5014423;28;20038;-85
2021/09/20 09:22:53;;;;;;;6.68;4.85;;;16.10;82.80;;;;;;5012268;28;20073;-84
2021/09/20 09:25:30;;;;;;;7.50;5.47;;;16.30;82.80;;;;;;5014666;28;20029;-84
2021/09/20 09:28:01;;;;;;;7.25;4.70;;;16.30;82.10;;;;;;5012714;28;20049;-84
2021/09/20 09:30:37;;;;;;;;;;;16.50;82.20;;;;;;5001016;28;20398;-85
2021/09/20 09:33:17;;;;;;;5.88;4.55;;;16.50;82.30;;;;;;5013539;28;19924;-84
2021/09/20 09:35:47;;;;;;;6.88;5.13;;;16.60;82.70;;;;;;5011961;28;20022;-85
2021/09/20 09:38:13;;;;;;;6.82;4.90;;;16.60;82.20;;;;;;5013959;28;20060;-84
2021/09/20 09:40:57;;;;;;;6.80;4.78;;;16.80;81.20;;;;;;5011870;28;20474;-85
2021/09/20 09:43:31;;;;;;;5.97;4.20;;;16.90;80.50;;;;;;5013434;28;20032;-85
2021/09/20 09:45:58;;;;;;;6.25;4.13;;;16.90;79.80;;;;;;5013350;28;20030;-85
2021/09/20 09:48:29;;;;;;;6.15;4.63;;;17.00;80.60;;;;;;5013552;28;20030;-85
2021/09/20 09:50:57;;;;;;;7.82;4.80;;;17.20;80.40;;;;;;5013517;28;20108;-84
2021/09/20 09:53:30;;;;;;;5.88;4.10;;;17.20;79.70;;;;;;5012955;28;20065;-86
2021/09/20 09:56:18;;;;;;;6.57;4.25;;;17.30;80.20;;;;;;5011899;28;20113;-84
2021/09/20 09:59:03;;;;;;;5.05;3.90;;;17.40;80.10;;;;;;5000512;28;20022;-85
2021/09/20 10:01:39;;;;;;;5.85;3.95;;;17.50;79.60;;;;;;5010762;28;20026;-85
2021/09/20 10:04:15;;;;;;;8.55;4.75;;;17.60;79.30;;;;;;5012955;28;20044;-86
2021/09/20 10:06:41;;;;;;;5.82;4.07;;;17.60;72.80;;;;;;5013138;28;20014;-85
2021/09/20 10:09:15;;;;;;;6.47;4.53;;;17.70;74.60;;;;;;5012879;28;20026;-87
2021/09/20 10:11:43;;;;;;;5.65;4.40;;;17.80;73.40;;;;;;5012454;28;20021;-83
2021/09/20 10:14:12;;;;;;;4.97;3.63;;;17.80;74.60;;;;;;5012699;28;20065;-84
2021/09/20 10:16:38;;;;;;;6.47;4.07;;;17.90;75.60;;;;;;5011421;28;20030;-85
2021/09/20 10:19:04;;;;;;;6.45;4.00;;;18.00;77.30;;;;;;5018287;28;20513;-84
2021/09/20 10:21:31;;;;;;;7.40;4.38;;;18.10;76.40;;;;;;5010959;28;20049;-85
2021/09/20 10:23:59;;;;;;;7.13;4.57;;;18.20;74.50;;;;;;5017438;28;20047;-85
2021/09/20 10:26:25;;;;;;;6.93;4.47;;;18.20;72.90;;;;;;5008880;28;20061;-85
2021/09/20 10:28:56;;;;;;;5.57;4.20;;;18.30;72.80;;;;;;5011295;28;20560;-85
2021/09/20 10:31:24;;;;;;;6.13;4.60;;;18.40;72.50;;;;;;5009807;28;20018;-85
2021/09/20 10:34:09;;;;;;;6.43;4.55;;;18.40;73.20;;;;;;5010626;28;20038;-85
2021/09/20 10:36:48;;;;;;;6.00;4.50;;;18.50;74.80;;;;;;4999046;28;20034;-85
2021/09/20 10:39:15;;;;;;;6.32;4.25;;;18.60;74.60;;;;;;5010491;28;20025;-85
2021/09/20 10:41:40;;;;;;;8.25;4.53;;;18.60;74.50;;;;;;5018892;28;20117;-86
2021/09/20 10:44:11;;;;;;;8.77;4.78;;;18.70;73.80;;;;;;5011781;28;20125;-84
2021/09/20 10:46:38;;;;;;;;;;;18.70;70.90;;;;;;5009230;28;20087;-86
2021/09/20 10:49:16;;;;;;;6.28;4.18;;;18.70;71.10;;;;;;5011084;28;19916;-84
2021/09/20 10:51:42;;;;;;;6.93;4.60;;;18.70;70.80;;;;;;5022227;28;20022;-84
2021/09/20 10:54:13;;;;;;;6.20;4.20;;;18.70;70.90;;;;;;5008152;28;20042;-85
2021/09/20 10:56:40;;;;;;;5.25;4.00;;;18.80;69.80;;;;;;5017892;28;20164;-85
2021/09/20 10:59:07;;;;;;;5.38;3.78;;;18.80;71.00;;;;;;5012237;28;20113;-87
2021/09/20 11:01:34;;;;;;;5.68;4.10;;;18.80;72.10;;;;;;5013645;28;20026;-92
2021/09/20 11:04:04;;;;;;;5.82;4.03;;;18.90;72.80;;;;;;5030228;28;20037;-89
2021/09/20 11:06:36;;;;;;;4.67;3.73;;;19.00;73.10;;;;;;5009567;28;20040;-85
2021/09/20 11:09:08;;;;;;;6.70;4.53;;;19.00;73.80;;;;;;5011987;28;20272;-88
2021/09/20 11:11:43;;;;;;;6.75;4.95;;;19.10;73.80;;;;;;5009855;28;20014;-90
2021/09/20 11:14:13;;;;;;;6.10;4.68;;;19.20;73.80;;;;;;5013207;28;20045;-89
2021/09/20 11:16:52;;;;;;;7.45;4.43;;;19.30;73.40;;;;;;5005135;28;20022;-89
2021/09/20 11:19:33;;;;;;;8.55;4.40;;;19.30;72.70;;;;;;5026211;28;20123;-90
2021/09/20 11:22:14;;;;;;;6.03;4.25;;;19.30;71.20;;;;;;5005868;28;20026;-89
2021/09/20 11:24:44;;;;;;;5.70;4.28;;;19.40;72.80;;;;;;4996601;28;20022;-89
2021/09/20 11:27:36;;;;;;;7.32;4.65;;;19.50;73.10;;;;;;4995122;28;20160;-89
2021/09/20 11:30:22;;;;;;;6.65;4.35;;;19.50;71.80;;;;;;4994987;28;20022;-90
2021/09/20 11:32:57;;;;;;;6.97;4.28;;;19.60;73.30;;;;;;4973651;28;20117;-89
2021/09/20 11:35:31;;;;;;;6.97;4.30;;;19.70;73.20;;;;;;4993036;28;20026;-91
2021/09/20 11:38:02;;;;;;;6.45;4.40;;;19.70;74.20;;;;;;4980745;28;20038;-93
2021/09/20 11:40:45;;;;;;;7.20;4.20;;;19.80;72.30;;;;;;4978195;28;20042;-96
2021/09/20 11:43:13;;;;;;;5.60;4.07;;;19.90;72.70;;;;;;4989476;28;20033;-93
2021/09/20 11:45:41;;;;;;;5.80;4.40;;;19.90;71.90;;;;;;4970860;28;20034;-92
2021/09/20 11:48:19;;;;;;;4.85;3.58;;;19.90;70.90;;;;;;4992506;28;20133;-91
2021/09/20 11:50:45;;;;;;;6.45;4.47;;;20.00;72.90;;;;;;4998604;28;20030;-91
2021/09/20 11:53:18;;;;;;;7.68;4.68;;;20.00;72.30;;;;;;5014078;28;20022;-89
2021/09/20 11:55:46;;;;;;;8.93;4.95;;;20.00;71.50;;;;;;5018750;28;20021;-91
2021/09/20 11:58:14;;;;;;;7.10;4.05;;;20.00;71.60;;;;;;5017580;28;20010;-90
2021/09/20 12:00:44;;;;;;;5.70;3.90;;;20.10;72.90;;;;;;5026500;28;20007;-90
2021/09/20 12:03:13;;;;;;;7.60;3.65;;;20.10;72.20;;;;;;5005068;28;20030;-91
2021/09/20 12:05:42;;;;;;;6.65;4.10;;;20.10;72.00;;;;;;4996800;28;20045;-92
2021/09/20 12:08:19;;;;;;;6.72;3.88;;;20.10;71.60;;;;;;4986584;28;20077;-91
2021/09/20 12:10:57;;;;;;;5.70;4.03;;;20.20;71.70;;;;;;4988935;28;20030;-91
2021/09/20 12:13:26;;;;;;;5.50;3.47;;;20.20;70.50;;;;;;4992850;28;20038;-93
2021/09/20 12:16:02;;;;;;;5.88;4.10;;;20.30;71.30;;;;;;5004446;28;20026;-92
2021/09/20 12:18:28;;;;;;;5.80;4.13;;;20.30;71.10;;;;;;4999417;28;20027;-93
2021/09/20 12:21:03;;;;;;;5.80;4.60;;;20.30;71.80;;;;;;4990521;28;20014;-92
2021/09/20 12:23:33;;;;;;;5.50;4.10;;;20.30;71.20;;;;;;5016650;28;20053;-92
2021/09/20 12:26:14;;;;;;;12.33;4.97;;;20.40;72.20;;;;;;5032516;28;20029;-91
2021/09/20 12:29:05;;;;;;;8.38;4.00;;;20.40;70.80;;;;;;5031672;28;20269;-91
2021/09/20 12:31:31;;;;;;;6.65;4.70;;;20.40;71.50;;;;;;5032657;28;20506;-92
2021/09/20 12:34:06;;;;;;;6.40;4.13;;;20.40;70.10;;;;;;5015805;28;20065;-91
2021/09/20 12:36:36;;;;;;;5.53;4.13;;;20.40;71.10;;;;;;5016567;28;20026;-92
2021/09/20 12:39:13;;;;;;;5.03;4.00;;;20.40;71.00;;;;;;5017008;28;20026;-91
2021/09/20 12:41:58;;;;;;;6.18;4.18;;;20.40;70.70;;;;;;5016508;28;20056;-92
2021/09/20 12:44:38;;;;;;;6.80;4.30;;;20.40;71.70;;;;;;5017365;28;20101;-91
2021/09/20 12:47:26;;;;;;;7.60;4.70;;;20.40;71.50;;;;;;5017171;28;20029;-92
2021/09/20 12:50:21;;;;;;;5.57;4.40;;;20.40;70.90;;;;;;5016093;28;20053;-92